createdAt,value
2023-02-06T00:00:09.717Z,25.30
2023-02-06T00:02:42.872Z,25.30
2023-02-06T00:05:16.393Z,25.40
2023-02-06T00:07:49.540Z,25.30
2023-02-06T00:10:23.018Z,25.30
2023-02-06T00:12:57.491Z,25.30
2023-02-06T00:15:30.765Z,25.30
2023-02-06T00:18:03.874Z,25.30
2023-02-06T00:20:37.398Z,25.30
2023-02-06T00:23:10.692Z,25.30
2023-02-06T00:25:43.908Z,25.30
2023-02-06T00:28:18.402Z,25.30
2023-02-06T00:30:51.557Z,25.30
2023-02-06T00:33:24.698Z,25.30
2023-02-06T00:35:57.813Z,25.30
2023-02-06T00:38:31.100Z,25.20
2023-02-06T00:41:04.484Z,25.20
2023-02-06T00:43:38.994Z,25.30
2023-02-06T00:46:12.227Z,25.20
2023-02-06T00:48:45.379Z,25.20
2023-02-06T00:51:18.539Z,25.20
2023-02-06T00:53:51.620Z,25.20
2023-02-06T00:56:25.719Z,25.20
2023-02-06T00:59:00.411Z,25.20
2023-02-06T01:01:33.517Z,25.20
2023-02-06T01:04:07.024Z,25.20
2023-02-06T01:06:40.446Z,25.20
2023-02-06T01:09:13.533Z,25.20
2023-02-06T01:11:46.620Z,25.20
2023-02-06T01:14:21.145Z,25.20
2023-02-06T01:16:54.290Z,25.20
2023-02-06T01:19:27.428Z,25.20
2023-02-06T01:22:00.934Z,25.20
2023-02-06T01:24:34.016Z,25.20
2023-02-06T01:27:07.119Z,25.20
2023-02-06T01:29:41.565Z,25.20
2023-02-06T01:32:14.647Z,25.20
2023-02-06T01:34:47.720Z,25.20
2023-02-06T01:37:20.828Z,25.20
2023-02-06T01:39:53.910Z,25.20
2023-02-06T01:42:26.959Z,25.20
2023-02-06T01:45:24.216Z,25.10
2023-02-06T01:48:00.571Z,25.20
2023-02-06T01:50:34.515Z,25.20
2023-02-06T01:53:08.976Z,25.20
2023-02-06T01:55:42.734Z,25.20
2023-02-06T01:58:18.180Z,25.10
2023-02-06T02:00:51.420Z,25.20
2023-02-06T02:03:25.916Z,25.20
2023-02-06T02:06:01.224Z,25.10
2023-02-06T02:08:37.203Z,25.20
2023-02-06T02:11:12.003Z,25.10
2023-02-06T02:13:45.394Z,25.10
2023-02-06T02:16:20.658Z,25.10
2023-02-06T02:19:00.829Z,25.10
2023-02-06T02:21:56.206Z,25.10
2023-02-06T02:24:35.870Z,25.10
2023-02-06T02:27:16.575Z,25.10
2023-02-06T02:30:05.830Z,25.10
2023-02-06T02:32:59.638Z,25.10
2023-02-06T02:35:36.197Z,25.20
2023-02-06T02:38:18.084Z,25.10
2023-02-06T02:40:53.235Z,25.20
2023-02-06T02:43:30.934Z,25.10
2023-02-06T02:46:08.160Z,25.10
2023-02-06T02:48:42.913Z,25.10
2023-02-06T02:51:17.683Z,25.10
2023-02-06T02:53:50.774Z,25.10
2023-02-06T02:56:24.867Z,25.10
2023-02-06T02:59:02.123Z,25.10
2023-02-06T03:01:36.825Z,25.10
2023-02-06T03:04:11.578Z,25.10
2023-02-06T03:06:54.521Z,25.10
2023-02-06T03:09:34.225Z,25.10
2023-02-06T03:12:12.680Z,25.10
2023-02-06T03:14:51.014Z,25.10
2023-02-06T03:17:28.693Z,25.10
2023-02-06T03:20:03.947Z,25.10
2023-02-06T03:22:38.747Z,25.10
2023-02-06T03:25:13.608Z,25.10
2023-02-06T03:27:46.943Z,25.10
2023-02-06T03:30:21.217Z,25.10
2023-02-06T03:32:56.437Z,25.10
2023-02-06T03:35:31.763Z,25.10
2023-02-06T03:38:07.629Z,25.10
2023-02-06T03:40:41.958Z,25.10
2023-02-06T03:43:18.803Z,25.10
2023-02-06T03:45:54.694Z,25.10
2023-02-06T03:48:30.893Z,25.10
2023-02-06T03:51:05.976Z,25.10
2023-02-06T03:53:41.943Z,25.10
2023-02-06T03:56:19.004Z,25.10
2023-02-06T03:58:52.102Z,25.10
2023-02-06T04:01:25.459Z,25.10
2023-02-06T04:03:59.154Z,25.10
2023-02-06T04:06:32.265Z,25.10
2023-02-06T04:09:06.764Z,25.10
2023-02-06T04:11:39.958Z,25.10
2023-02-06T04:14:13.026Z,25.10
2023-02-06T04:16:46.107Z,25.10
2023-02-06T04:19:19.197Z,25.10
2023-02-06T04:21:52.288Z,25.10
2023-02-06T04:24:26.724Z,25.10
2023-02-06T04:26:59.802Z,25.10
2023-02-06T04:29:32.893Z,25.10
2023-02-06T04:32:06.537Z,25.10
2023-02-06T04:34:39.640Z,25.10
2023-02-06T04:37:13.422Z,25.10
2023-02-06T04:39:48.144Z,25.10
2023-02-06T04:42:21.216Z,25.10
2023-02-06T04:44:54.263Z,25.10
2023-02-06T04:47:27.363Z,25.10
2023-02-06T04:50:00.442Z,25.10
2023-02-06T04:52:33.569Z,25.10
2023-02-06T04:55:08.616Z,25.10
2023-02-06T04:57:41.676Z,25.10
2023-02-06T05:00:15.551Z,25.10
2023-02-06T05:02:48.657Z,25.10
2023-02-06T05:05:21.781Z,25.10
2023-02-06T05:07:54.921Z,25.10
2023-02-06T05:10:29.363Z,25.10
2023-02-06T05:13:02.480Z,25.10
2023-02-06T05:15:36.826Z,25.10
2023-02-06T05:18:10.109Z,25.10
2023-02-06T05:20:43.639Z,25.10
2023-02-06T05:23:16.731Z,25.10
2023-02-06T05:25:51.176Z,25.10
2023-02-06T05:28:24.377Z,25.10
2023-02-06T05:30:57.745Z,25.10
2023-02-06T05:33:31.075Z,25.10
2023-02-06T05:36:04.539Z,25.10
2023-02-06T05:38:37.633Z,25.10
2023-02-06T05:41:12.078Z,25.10
2023-02-06T05:43:45.173Z,25.10
2023-02-06T05:46:19.446Z,25.00
2023-02-06T05:48:52.571Z,25.10
2023-02-06T05:51:25.661Z,25.10
2023-02-06T05:53:58.729Z,25.10
2023-02-06T05:56:33.220Z,25.00
2023-02-06T05:59:06.311Z,25.10
2023-02-06T06:01:39.412Z,25.10
2023-02-06T06:04:12.571Z,25.10
2023-02-06T06:06:45.720Z,25.10
2023-02-06T06:09:18.904Z,25.10
2023-02-06T06:11:53.410Z,25.10
2023-02-06T06:14:26.544Z,25.10
2023-02-06T06:16:59.667Z,25.20
2023-02-06T06:19:32.716Z,25.20
2023-02-06T06:22:06.151Z,25.20
2023-02-06T06:24:39.297Z,25.20
2023-02-06T06:27:13.730Z,25.20
2023-02-06T06:29:46.806Z,25.20
2023-02-06T06:32:20.027Z,25.20
2023-02-06T06:34:53.123Z,25.20
2023-02-06T06:37:26.233Z,25.20
2023-02-06T06:39:59.317Z,25.20
2023-02-06T06:42:33.772Z,25.20
2023-02-06T06:45:07.501Z,25.20
2023-02-06T06:47:40.612Z,25.20
2023-02-06T06:50:13.680Z,25.20
2023-02-06T06:52:46.755Z,25.20
2023-02-06T06:55:19.868Z,25.20
2023-02-06T06:57:54.343Z,25.20
2023-02-06T07:00:27.457Z,25.20
2023-02-06T07:03:00.612Z,25.30
2023-02-06T07:05:34.252Z,25.30
2023-02-06T07:08:07.510Z,25.30
2023-02-06T07:10:40.736Z,25.30
2023-02-06T07:13:15.498Z,25.30
2023-02-06T07:15:48.659Z,25.30
2023-02-06T07:18:21.931Z,25.30
2023-02-06T07:20:55.087Z,25.30
2023-02-06T07:23:28.175Z,25.30
2023-02-06T07:26:02.369Z,25.30
2023-02-06T07:28:36.980Z,25.40
2023-02-06T07:31:10.125Z,25.30
2023-02-06T07:33:43.228Z,25.40
2023-02-06T07:36:18.511Z,25.40
2023-02-06T07:38:51.780Z,25.40
2023-02-06T07:41:24.879Z,25.40
2023-02-06T07:43:59.302Z,25.40
2023-02-06T07:46:33.113Z,25.40
2023-02-06T07:49:06.214Z,25.50
2023-02-06T07:51:39.958Z,25.50
2023-02-06T07:54:13.355Z,25.50
2023-02-06T07:56:46.478Z,25.50
2023-02-06T07:59:21.106Z,25.50
2023-02-06T08:01:54.404Z,25.50
2023-02-06T08:04:29.464Z,25.50
2023-02-06T08:07:02.648Z,25.50
2023-02-06T08:09:35.997Z,25.50
2023-02-06T08:12:11.720Z,25.50
2023-02-06T08:14:46.414Z,25.40
2023-02-06T08:17:21.277Z,25.50
2023-02-06T08:19:54.374Z,25.50
2023-02-06T08:22:29.436Z,25.50
2023-02-06T08:25:02.577Z,25.50
2023-02-06T08:27:35.709Z,25.50
2023-02-06T08:30:10.971Z,25.50
2023-02-06T08:32:44.043Z,25.50
2023-02-06T08:35:17.161Z,25.50
2023-02-06T08:37:50.250Z,25.50
2023-02-06T08:40:23.536Z,25.50
2023-02-06T08:42:56.669Z,25.50
2023-02-06T08:45:31.101Z,25.50
2023-02-06T08:48:04.333Z,25.50
2023-02-06T08:50:37.677Z,25.50
2023-02-06T08:53:10.898Z,25.50
2023-02-06T08:55:44.081Z,25.50
2023-02-06T08:58:17.169Z,25.50
2023-02-06T09:00:52.138Z,25.50
2023-02-06T09:03:26.125Z,25.60
2023-02-06T09:06:09.390Z,25.60
2023-02-06T09:08:43.402Z,25.60
2023-02-06T09:11:17.100Z,25.60
2023-02-06T09:13:50.658Z,25.60
2023-02-06T09:16:25.687Z,25.60
2023-02-06T09:19:01.565Z,25.60
2023-02-06T09:21:35.518Z,25.60
2023-02-06T09:24:09.503Z,25.70
2023-02-06T09:26:58.505Z,25.70
2023-02-06T09:29:32.818Z,25.80
2023-02-06T09:32:07.328Z,25.90
2023-02-06T09:34:40.420Z,25.90
2023-02-06T09:37:13.488Z,26.00
2023-02-06T09:39:46.646Z,26.10
2023-02-06T09:42:22.048Z,26.10
2023-02-06T09:45:02.031Z,26.20
2023-02-06T09:47:38.736Z,26.20
2023-02-06T09:50:19.064Z,26.30
2023-02-06T09:52:57.601Z,26.40
2023-02-06T09:55:33.483Z,26.40
2023-02-06T09:58:16.031Z,26.40
2023-02-06T10:00:51.821Z,26.50
2023-02-06T10:03:37.090Z,26.50
2023-02-06T10:06:15.979Z,26.60
2023-02-06T10:08:53.399Z,26.60
2023-02-06T10:11:32.390Z,26.70
2023-02-06T10:14:06.642Z,26.70
2023-02-06T10:16:42.784Z,26.80
2023-02-06T10:19:20.353Z,26.80
2023-02-06T10:21:56.043Z,26.80
2023-02-06T10:24:33.479Z,26.80
2023-02-06T10:27:10.818Z,26.80
2023-02-06T10:29:45.745Z,26.80
2023-02-06T10:32:27.108Z,26.70
2023-02-06T10:35:33.391Z,26.70
2023-02-06T10:38:25.793Z,26.70
2023-02-06T10:41:04.025Z,26.70
2023-02-06T10:43:41.786Z,26.60
2023-02-06T10:46:23.073Z,26.50
2023-02-06T10:48:58.751Z,26.30
2023-02-06T10:51:33.201Z,26.00
2023-02-06T10:54:12.812Z,25.80
2023-02-06T10:56:47.681Z,25.70
2023-02-06T10:59:28.204Z,25.70
2023-02-06T11:02:21.526Z,25.70
2023-02-06T11:04:56.798Z,25.70
2023-02-06T11:07:31.733Z,25.60
2023-02-06T11:10:07.068Z,25.60
2023-02-06T11:12:42.385Z,25.70
2023-02-06T11:15:19.278Z,25.70
2023-02-06T11:17:53.043Z,25.60
2023-02-06T11:20:28.303Z,25.60
2023-02-06T11:23:14.870Z,25.60
2023-02-06T11:25:52.185Z,25.70
2023-02-06T11:28:25.965Z,25.60
2023-02-06T11:31:00.411Z,25.60
2023-02-06T11:33:39.081Z,25.60
2023-02-06T11:36:22.684Z,25.60
2023-02-06T11:38:57.200Z,25.60
2023-02-06T11:41:32.235Z,25.60
2023-02-06T11:44:06.630Z,25.60
2023-02-06T11:46:40.367Z,25.60
2023-02-06T11:49:24.675Z,25.60
2023-02-06T11:51:59.836Z,25.50
2023-02-06T11:54:35.254Z,25.50
2023-02-06T11:57:26.809Z,25.50
2023-02-06T12:00:00.876Z,25.50
2023-02-06T12:02:35.458Z,25.50
2023-02-06T12:05:12.826Z,25.50
2023-02-06T12:07:48.824Z,25.50
2023-02-06T12:10:23.472Z,25.50
2023-02-06T12:13:01.214Z,25.50
2023-02-06T12:15:46.673Z,25.50
2023-02-06T12:18:23.184Z,25.50
2023-02-06T12:20:59.203Z,25.50
2023-02-06T12:23:34.829Z,25.40
2023-02-06T12:26:09.955Z,25.40
2023-02-06T12:28:50.959Z,25.40
2023-02-06T12:31:26.498Z,25.40
2023-02-06T12:34:04.888Z,25.40
2023-02-06T12:36:47.930Z,25.40
2023-02-06T12:39:22.022Z,25.40
2023-02-06T12:42:03.308Z,25.30
2023-02-06T12:44:39.422Z,25.30
2023-02-06T12:47:18.076Z,25.30
2023-02-06T12:49:53.634Z,25.30
2023-02-06T12:52:28.367Z,25.30
2023-02-06T12:55:04.773Z,25.40
2023-02-06T12:57:38.742Z,25.30
2023-02-06T13:00:26.833Z,25.30
2023-02-06T13:03:06.833Z,25.30
2023-02-06T13:05:41.519Z,25.40
2023-02-06T13:08:16.574Z,25.30
2023-02-06T13:10:51.456Z,25.40
2023-02-06T13:13:27.208Z,25.30
2023-02-06T13:16:01.517Z,25.40
2023-02-06T13:18:52.564Z,25.40
2023-02-06T13:21:28.633Z,25.40
2023-02-06T13:24:14.774Z,25.40
2023-02-06T13:27:06.267Z,25.40
2023-02-06T13:29:39.922Z,25.40
2023-02-06T13:32:46.406Z,25.50
2023-02-06T13:35:28.847Z,25.50
2023-02-06T13:38:12.433Z,25.50
2023-02-06T13:40:45.591Z,25.50
2023-02-06T13:43:20.730Z,25.50
2023-02-06T13:45:55.729Z,25.50
2023-02-06T13:48:54.251Z,25.50
2023-02-06T13:51:36.950Z,25.50
2023-02-06T13:54:28.756Z,25.50
2023-02-06T13:57:10.328Z,25.50
2023-02-06T13:59:45.117Z,25.50
2023-02-06T14:02:21.903Z,25.50
2023-02-06T14:04:55.419Z,25.50
2023-02-06T14:07:36.086Z,25.50
2023-02-06T14:10:17.701Z,25.50
2023-02-06T14:12:57.414Z,25.50
2023-02-06T14:15:34.056Z,25.50
2023-02-06T14:18:31.188Z,25.50
2023-02-06T14:21:11.280Z,25.50
2023-02-06T14:23:55.805Z,25.40
2023-02-06T14:26:33.227Z,25.40
2023-02-06T14:29:11.264Z,25.40
2023-02-06T14:31:56.783Z,25.40
2023-02-06T14:34:36.506Z,25.50
2023-02-06T14:37:24.410Z,25.50
2023-02-06T14:40:04.366Z,25.50
2023-02-06T14:42:39.595Z,25.40
2023-02-06T14:45:25.353Z,25.40
2023-02-06T14:48:00.174Z,25.40
2023-02-06T14:50:34.398Z,25.50
2023-02-06T14:53:09.804Z,25.50
2023-02-06T14:55:47.128Z,25.40
2023-02-06T14:58:21.628Z,25.50
2023-02-06T15:00:55.057Z,25.50
2023-02-06T15:03:28.528Z,25.40
2023-02-06T15:06:02.679Z,25.40
2023-02-06T15:08:36.009Z,25.50
2023-02-06T15:11:20.342Z,25.50
2023-02-06T15:13:54.451Z,25.50
2023-02-06T15:16:28.027Z,25.50
2023-02-06T15:19:12.010Z,25.40
2023-02-06T15:21:45.519Z,25.40
2023-02-06T15:24:33.299Z,25.40
2023-02-06T15:27:12.670Z,25.40
2023-02-06T15:29:49.141Z,25.40
2023-02-06T15:32:26.241Z,25.40
2023-02-06T15:35:00.094Z,25.40
2023-02-06T15:37:34.362Z,25.40
2023-02-06T15:40:10.309Z,25.40
2023-02-06T15:42:45.118Z,25.40
2023-02-06T15:45:20.649Z,25.30
2023-02-06T15:47:54.742Z,25.30
2023-02-06T15:50:29.614Z,25.30
2023-02-06T15:53:17.561Z,25.30
2023-02-06T15:55:56.640Z,25.30
2023-02-06T15:58:31.991Z,25.30
2023-02-06T16:01:08.632Z,25.30
2023-02-06T16:03:42.574Z,25.30
2023-02-06T16:06:16.488Z,25.30
2023-02-06T16:08:51.302Z,25.30
2023-02-06T16:11:47.805Z,25.30
2023-02-06T16:14:24.447Z,25.20
2023-02-06T16:16:59.298Z,25.20
2023-02-06T16:19:40.855Z,25.30
2023-02-06T16:22:16.972Z,25.20
2023-02-06T16:24:51.474Z,25.30
2023-02-06T16:27:26.410Z,25.20
2023-02-06T16:30:01.132Z,25.20
2023-02-06T16:32:35.524Z,25.20
2023-02-06T16:35:13.565Z,25.20
2023-02-06T16:37:46.920Z,25.20
2023-02-06T16:40:20.645Z,25.30
2023-02-06T16:42:54.073Z,25.20
2023-02-06T16:45:29.198Z,25.30
2023-02-06T16:48:02.481Z,25.20
2023-02-06T16:50:37.114Z,25.30
2023-02-06T16:53:14.245Z,25.30
2023-02-06T16:55:47.595Z,25.30
2023-02-06T16:58:22.259Z,25.30
2023-02-06T17:00:56.970Z,25.30
2023-02-06T17:03:32.606Z,25.30
2023-02-06T17:06:06.642Z,25.30
2023-02-06T17:08:39.984Z,25.30
2023-02-06T17:11:13.758Z,25.30
2023-02-06T17:13:47.125Z,25.30
2023-02-06T17:16:24.311Z,25.30
2023-02-06T17:18:57.657Z,25.30
2023-02-06T17:21:33.203Z,25.30
2023-02-06T17:24:06.829Z,25.30
2023-02-06T17:26:40.138Z,25.30
2023-02-06T17:29:14.530Z,25.30
2023-02-06T17:31:49.369Z,25.30
2023-02-06T17:34:23.370Z,25.30
2023-02-06T17:36:57.080Z,25.30
2023-02-06T17:39:30.505Z,25.30
2023-02-06T17:42:03.794Z,25.30
2023-02-06T17:44:37.083Z,25.30
2023-02-06T17:47:13.979Z,25.30
2023-02-06T17:49:47.870Z,25.30
2023-02-06T17:52:21.431Z,25.30
2023-02-06T17:54:54.865Z,25.30
2023-02-06T17:57:29.903Z,25.30
2023-02-06T18:00:03.475Z,25.30
2023-02-06T18:02:39.781Z,25.30
2023-02-06T18:05:13.179Z,25.30
2023-02-06T18:07:49.560Z,25.30
2023-02-06T18:10:24.606Z,25.30
2023-02-06T18:12:57.963Z,25.30
2023-02-06T18:15:31.996Z,25.30
2023-02-06T18:18:06.842Z,25.30
2023-02-06T18:20:42.706Z,25.20
2023-02-06T18:23:19.200Z,25.30
2023-02-06T18:25:52.596Z,25.30
2023-02-06T18:28:25.902Z,25.30
2023-02-06T18:31:01.767Z,25.30
2023-02-06T18:33:36.699Z,25.30
2023-02-06T18:36:11.307Z,25.30
2023-02-06T18:38:44.961Z,25.30
2023-02-06T18:41:35.700Z,25.30
2023-02-06T18:44:09.899Z,25.30
2023-02-06T18:46:43.400Z,25.40
2023-02-06T18:49:18.222Z,25.40
2023-02-06T18:51:51.663Z,25.30
2023-02-06T18:54:24.981Z,25.30
2023-02-06T18:56:58.294Z,25.30
2023-02-06T18:59:31.680Z,25.30
2023-02-06T19:02:04.968Z,25.30
2023-02-06T19:04:40.677Z,25.30
2023-02-06T19:07:15.424Z,25.30
2023-02-06T19:09:48.749Z,25.30
2023-02-06T19:12:22.068Z,25.30
2023-02-06T19:14:55.388Z,25.30
2023-02-06T19:17:29.196Z,25.30
2023-02-06T19:20:04.237Z,25.30
2023-02-06T19:22:38.389Z,25.30
2023-02-06T19:25:14.624Z,25.30
2023-02-06T19:27:48.467Z,25.30
2023-02-06T19:30:21.984Z,25.30
2023-02-06T19:32:55.450Z,25.30
2023-02-06T19:35:30.175Z,25.30
2023-02-06T19:38:03.589Z,25.30
2023-02-06T19:40:37.468Z,25.30
2023-02-06T19:43:11.547Z,25.30
2023-02-06T19:45:44.950Z,25.30
2023-02-06T19:48:18.281Z,25.30
2023-02-06T19:50:52.970Z,25.30
2023-02-06T19:53:26.271Z,25.30
2023-02-06T19:55:59.716Z,25.30
2023-02-06T19:58:33.264Z,25.30
2023-02-06T20:01:08.691Z,25.30
2023-02-06T20:03:42.152Z,25.30
2023-02-06T20:06:17.416Z,25.40
2023-02-06T20:08:51.055Z,25.30
2023-02-06T20:11:24.589Z,25.30
2023-02-06T20:13:58.432Z,25.30
2023-02-06T20:16:33.127Z,25.30
2023-02-06T20:19:07.305Z,25.40
2023-02-06T20:21:43.003Z,25.30
2023-02-06T20:24:18.581Z,25.30
2023-02-06T20:26:55.557Z,25.30
2023-02-06T20:29:30.475Z,25.40
2023-02-06T20:32:04.560Z,25.40
2023-02-06T20:34:37.901Z,25.30
2023-02-06T20:37:12.966Z,25.30
2023-02-06T20:39:46.301Z,25.30
2023-02-06T20:42:22.341Z,25.40
2023-02-06T20:44:56.315Z,25.40
2023-02-06T20:47:29.718Z,25.40
2023-02-06T20:50:03.083Z,25.40
2023-02-06T20:52:37.800Z,25.40
2023-02-06T20:55:11.122Z,25.40
2023-02-06T20:57:44.419Z,25.40
2023-02-06T21:00:18.110Z,25.40
2023-02-06T21:02:53.100Z,25.40
2023-02-06T21:05:27.099Z,25.40
2023-02-06T21:08:17.709Z,25.50
2023-02-06T21:10:52.910Z,25.40
2023-02-06T21:13:26.274Z,25.40
2023-02-06T21:15:59.726Z,25.40
2023-02-06T21:18:33.398Z,25.40
2023-02-06T21:21:09.410Z,25.40
2023-02-06T21:23:43.621Z,25.40
2023-02-06T21:26:18.586Z,25.40
2023-02-06T21:28:52.077Z,25.40
2023-02-06T21:31:33.298Z,25.40
2023-02-06T21:34:09.129Z,25.40
2023-02-06T21:36:42.725Z,25.40
2023-02-06T21:39:17.309Z,25.40
2023-02-06T21:41:53.894Z,25.50
2023-02-06T21:44:27.276Z,25.40
2023-02-06T21:47:00.771Z,25.40
2023-02-06T21:49:34.170Z,25.40
2023-02-06T21:52:07.622Z,25.50
2023-02-06T21:54:42.180Z,25.40
2023-02-06T21:57:17.004Z,25.50
2023-02-06T21:59:50.456Z,25.50
2023-02-06T22:02:23.787Z,25.50
2023-02-06T22:04:57.151Z,25.50
2023-02-06T22:07:30.442Z,25.50
2023-02-06T22:10:04.178Z,25.50
2023-02-06T22:12:38.886Z,25.50
2023-02-06T22:15:12.255Z,25.50
2023-02-06T22:17:45.762Z,25.50
2023-02-06T22:20:19.133Z,25.50
2023-02-06T22:22:52.455Z,25.50
2023-02-06T22:25:28.233Z,25.50
2023-02-06T22:28:03.353Z,25.50
2023-02-06T22:30:36.794Z,25.50
2023-02-06T22:33:10.127Z,25.50
2023-02-06T22:35:43.456Z,25.50
2023-02-06T22:38:16.855Z,25.50
2023-02-06T22:40:58.410Z,25.50
2023-02-06T22:43:34.066Z,25.50
2023-02-06T22:46:07.849Z,25.50
2023-02-06T22:48:41.177Z,25.50
2023-02-06T22:51:14.630Z,25.50
2023-02-06T22:53:48.173Z,25.50
2023-02-06T22:56:29.676Z,25.50
2023-02-06T22:59:05.442Z,25.50
2023-02-06T23:01:39.877Z,25.50
2023-02-06T23:04:15.860Z,25.50
2023-02-06T23:06:49.495Z,25.50
2023-02-06T23:09:23.844Z,25.50
2023-02-06T23:11:58.435Z,25.50
2023-02-06T23:14:33.792Z,25.50
2023-02-06T23:17:07.124Z,25.50
2023-02-06T23:19:40.556Z,25.50
2023-02-06T23:22:13.897Z,25.50
2023-02-06T23:24:47.221Z,25.50
2023-02-06T23:27:21.087Z,25.50
2023-02-06T23:29:55.790Z,25.50
2023-02-06T23:32:29.158Z,25.50
2023-02-06T23:35:04.640Z,25.50
2023-02-06T23:37:38.259Z,25.50
2023-02-06T23:40:11.791Z,25.50
2023-02-06T23:42:45.776Z,25.50
2023-02-06T23:45:20.612Z,25.50
2023-02-06T23:47:54.100Z,25.50
2023-02-06T23:50:27.496Z,25.50
2023-02-06T23:53:00.814Z,25.50
2023-02-06T23:55:34.117Z,25.50
2023-02-06T23:58:07.460Z,25.50
